Cotes De Bretagne — FW3973 — position and weather

sailwx.info

Track history (hours):
 
Tides and Currents Weather Stations Pressure Air Temp Water Temp Dewpoint Dewpoint Depression Visibility Wind Speed Wind Dir Waves Ship Positions

Cotes De Bretagne

Last reported at 2015-Sep-04 03:25 UTC. Time now 2015-Sep-04 03:54 UTC.
Position N 47°43' W 003°48'.

Length 75 m; draft 4.2 m.

Type: Dredging. MMSI: 227003850.

Date/timePositionNaut miles runAvg speedWind from/ knotsBaromVisibWave heightAir tempDewpointWater temp
2015-Sep-04 03:25N 47°43' W 003°48'7 7.6
2015-Sep-04 02:33N 47°40' W 003°40'8 8.2
2015-Sep-04 01:33N 47°35' W 003°31'9 8.6
2015-Sep-04 00:33N 47°29' W 003°21'9 9.3
2015-Sep-03 23:33N 47°24' W 003°10'9 9.4
2015-Sep-03 22:33N 47°19' W 002°58'9 9.3
2015-Sep-03 21:33N 47°15' W 002°45'4 0.5
2015-Sep-03 13:33N 47°16' W 002°51'1010.4
2015-Sep-03 12:33N 47°21' W 003°04'1010.0
2015-Sep-03 11:33N 47°27' W 003°17'1110.5
2015-Sep-03 10:33N 47°33' W 003°29'1110.9
2015-Sep-03 09:33N 47°40' W 003°42'17 0.7
2015-Sep-02 09:20N 47°29' W 003°23'71 8.0
2015-Sep-02 00:32N 46°36' W 002°15'8 8.4
2015-Sep-01 23:33N 46°31' W 002°05'9 8.6
2015-Sep-01 22:33N 46°26' W 001°55'8 8.1
2015-Sep-01 21:34N 46°22' W 001°45'0 0.1
2015-Sep-01 20:33N 46°22' W 001°45'0 0.2
2015-Sep-01 19:33N 46°22' W 001°44'6 6.2
2015-Sep-01 18:33N 46°26' W 001°52'1111.0
2015-Sep-01 17:33N 46°34' W 002°02'5310.6
2015-Sep-01 12:33N 47°14' W 002°53'10 9.9
2015-Sep-01 11:33N 47°21' W 003°04'9 9.5
2015-Sep-01 10:33N 47°26' W 003°16'10 9.7
2015-Sep-01 09:33N 47°32' W 003°27'1010.0
2015-Sep-01 08:34N 47°38' W 003°39'8 0.2
2015-Aug-31 01:31N 47°43' W 003°48'8 7.8
2015-Aug-31 00:33N 47°38' W 003°39'8 7.8
2015-Aug-30 23:33N 47°33' W 003°30'8 7.7
2015-Aug-30 22:33N 47°29' W 003°21'8 8.3
2015-Aug-30 21:33N 47°24' W 003°11'8 8.5
2015-Aug-30 20:34N 47°19' W 003°01'8 8.0
2015-Aug-30 19:33N 47°13' W 002°52'11 7.5
2015-Aug-30 18:08N 47°05' W 002°42'12 7.4
2015-Aug-30 16:28N 46°56' W 002°30'22 7.2
2015-Aug-30 13:27N 46°40' W 002°09'7 7.5
2015-Aug-30 12:33N 46°34' W 002°04'8 7.6
2015-Aug-30 11:33N 46°28' W 001°57'7 7.4
2015-Aug-30 10:33N 46°22' W 001°51'4 4.2
2015-Aug-30 09:33N 46°22' W 001°45'0 0.1
2015-Aug-30 08:33N 46°22' W 001°45'0 0.2
2015-Aug-30 07:33N 46°22' W 001°45'8 7.8
2015-Aug-30 06:33N 46°26' W 001°55'9 9.1
2015-Aug-30 05:33N 46°33' W 002°03'10 9.6
2015-Aug-30 04:32N 46°41' W 002°11'9 9.7
2015-Aug-30 03:33N 46°49' W 002°20'1010.0
2015-Aug-30 02:34N 46°56' W 002°30'10 9.4
2015-Aug-30 01:33N 47°03' W 002°39'9 9.5
2015-Aug-30 00:33N 47°10' W 002°48'9 9.1
2015-Aug-29 23:34N 47°17' W 002°57'8 7.7
2015-Aug-29 22:33N 47°22' W 003°06'9 8.9
2015-Aug-29 21:33N 47°27' W 003°17'9 8.9
2015-Aug-29 20:33N 47°32' W 003°27'9 9.0
2015-Aug-29 19:33N 47°38' W 003°38'9 1.0
2015-Aug-29 11:26N 47°43' W 003°48'18 9.5
2015-Aug-29 09:33N 47°32' W 003°27'9 9.5
2015-Aug-29 08:33N 47°26' W 003°16'1010.2
2015-Aug-29 07:34N 47°21' W 003°03'1010.0
2015-Aug-29 06:33N 47°16' W 002°50'11 9.7
2015-Aug-29 05:28N 47°11' W 002°37'9 9.5
2015-Aug-29 04:34N 47°06' W 002°26'4 4.1
2015-Aug-29 03:33N 47°05' W 002°20'0 0.2
2015-Aug-29 02:28N 47°05' W 002°20'0 0.2
2015-Aug-29 01:32N 47°05' W 002°20'1 1.1
2015-Aug-29 00:33N 47°05' W 002°21'8 7.8
2015-Aug-28 23:33N 47°08' W 002°31'1111.1
2015-Aug-28 22:33N 47°14' W 002°45'1010.6
2015-Aug-28 21:34N 47°19' W 002°58'1010.4
2015-Aug-28 20:33N 47°25' W 003°12'1010.3
2015-Aug-28 19:33N 47°30' W 003°24'1110.6
2015-Aug-28 18:33N 47°37' W 003°37'1110.7
2015-Aug-28 17:33N 47°43' W 003°49'10 9.5
2015-Aug-28 16:33N 47°48' W 004°02'4 0.4
2015-Aug-28 07:32N 47°50' W 004°06'0 0.0
2015-Aug-28 06:33N 47°50' W 004°06'0 0.0
2015-Aug-28 05:24N 47°50' W 004°06'0 0.0
2015-Aug-28 00:15N 47°50' W 004°06'31 3.2
2015-Aug-27 14:34N 48°05' W 004°46'  
Track history (hours):
 
Tides and Currents Weather Stations Pressure Air Temp Water Temp Dewpoint Dewpoint Depression Visibility Wind Speed Wind Dir Waves Ship Positions

Cotes De Bretagne

Last reported at 2015-Sep-04 03:25 UTC. Time now 2015-Sep-04 03:54 UTC.
Position N 47°43' W 003°48'.

Length 75 m; draft 4.2 m.

Type: Dredging. MMSI: 227003850.

Date/timePositionNaut miles runAvg speedWind from/ knotsBaromVisibWave heightAir tempDewpointWater temp
2015-Sep-04 03:25N 47°43' W 003°48'7 7.6
2015-Sep-04 02:33N 47°40' W 003°40'8 8.2
2015-Sep-04 01:33N 47°35' W 003°31'9 8.6
2015-Sep-04 00:33N 47°29' W 003°21'9 9.3
2015-Sep-03 23:33N 47°24' W 003°10'9 9.4
2015-Sep-03 22:33N 47°19' W 002°58'9 9.3
2015-Sep-03 21:33N 47°15' W 002°45'4 0.5
2015-Sep-03 13:33N 47°16' W 002°51'1010.4
2015-Sep-03 12:33N 47°21' W 003°04'1010.0
2015-Sep-03 11:33N 47°27' W 003°17'1110.5
2015-Sep-03 10:33N 47°33' W 003°29'1110.9
2015-Sep-03 09:33N 47°40' W 003°42'17 0.7
2015-Sep-02 09:20N 47°29' W 003°23'71 8.0
2015-Sep-02 00:32N 46°36' W 002°15'8 8.4
2015-Sep-01 23:33N 46°31' W 002°05'9 8.6
2015-Sep-01 22:33N 46°26' W 001°55'8 8.1
2015-Sep-01 21:34N 46°22' W 001°45'0 0.1
2015-Sep-01 20:33N 46°22' W 001°45'0 0.2
2015-Sep-01 19:33N 46°22' W 001°44'6 6.2
2015-Sep-01 18:33N 46°26' W 001°52'1111.0
2015-Sep-01 17:33N 46°34' W 002°02'5310.6
2015-Sep-01 12:33N 47°14' W 002°53'10 9.9
2015-Sep-01 11:33N 47°21' W 003°04'9 9.5
2015-Sep-01 10:33N 47°26' W 003°16'10 9.7
2015-Sep-01 09:33N 47°32' W 003°27'1010.0
2015-Sep-01 08:34N 47°38' W 003°39'8 0.2
2015-Aug-31 01:31N 47°43' W 003°48'8 7.8
2015-Aug-31 00:33N 47°38' W 003°39'8 7.8
2015-Aug-30 23:33N 47°33' W 003°30'8 7.7
2015-Aug-30 22:33N 47°29' W 003°21'8 8.3
2015-Aug-30 21:33N 47°24' W 003°11'8 8.5
2015-Aug-30 20:34N 47°19' W 003°01'8 8.0
2015-Aug-30 19:33N 47°13' W 002°52'11 7.5
2015-Aug-30 18:08N 47°05' W 002°42'12 7.4
2015-Aug-30 16:28N 46°56' W 002°30'22 7.2
2015-Aug-30 13:27N 46°40' W 002°09'7 7.5
2015-Aug-30 12:33N 46°34' W 002°04'8 7.6
2015-Aug-30 11:33N 46°28' W 001°57'7 7.4
2015-Aug-30 10:33N 46°22' W 001°51'4 4.2
2015-Aug-30 09:33N 46°22' W 001°45'0 0.1
2015-Aug-30 08:33N 46°22' W 001°45'0 0.2
2015-Aug-30 07:33N 46°22' W 001°45'8 7.8
2015-Aug-30 06:33N 46°26' W 001°55'9 9.1
2015-Aug-30 05:33N 46°33' W 002°03'10 9.6
2015-Aug-30 04:32N 46°41' W 002°11'9 9.7
2015-Aug-30 03:33N 46°49' W 002°20'1010.0
2015-Aug-30 02:34N 46°56' W 002°30'10 9.4
2015-Aug-30 01:33N 47°03' W 002°39'9 9.5
2015-Aug-30 00:33N 47°10' W 002°48'9 9.1
2015-Aug-29 23:34N 47°17' W 002°57'8 7.7
2015-Aug-29 22:33N 47°22' W 003°06'9 8.9
2015-Aug-29 21:33N 47°27' W 003°17'9 8.9
2015-Aug-29 20:33N 47°32' W 003°27'9 9.0
2015-Aug-29 19:33N 47°38' W 003°38'9 1.0
2015-Aug-29 11:26N 47°43' W 003°48'18 9.5
2015-Aug-29 09:33N 47°32' W 003°27'9 9.5
2015-Aug-29 08:33N 47°26' W 003°16'1010.2
2015-Aug-29 07:34N 47°21' W 003°03'1010.0
2015-Aug-29 06:33N 47°16' W 002°50'11 9.7
2015-Aug-29 05:28N 47°11' W 002°37'9 9.5
2015-Aug-29 04:34N 47°06' W 002°26'4 4.1
2015-Aug-29 03:33N 47°05' W 002°20'0 0.2
2015-Aug-29 02:28N 47°05' W 002°20'0 0.2
2015-Aug-29 01:32N 47°05' W 002°20'1 1.1
2015-Aug-29 00:33N 47°05' W 002°21'8 7.8
2015-Aug-28 23:33N 47°08' W 002°31'1111.1
2015-Aug-28 22:33N 47°14' W 002°45'1010.6
2015-Aug-28 21:34N 47°19' W 002°58'1010.4
2015-Aug-28 20:33N 47°25' W 003°12'1010.3
2015-Aug-28 19:33N 47°30' W 003°24'1110.6
2015-Aug-28 18:33N 47°37' W 003°37'1110.7
2015-Aug-28 17:33N 47°43' W 003°49'10 9.5
2015-Aug-28 16:33N 47°48' W 004°02'4 0.4
2015-Aug-28 07:32N 47°50' W 004°06'0 0.0
2015-Aug-28 06:33N 47°50' W 004°06'0 0.0
2015-Aug-28 05:24N 47°50' W 004°06'0 0.0
2015-Aug-28 00:15N 47°50' W 004°06'31 3.2
2015-Aug-27 14:34N 48°05' W 004°46'  

Dump ship's entire track history